createdAt,value
2023-03-17T00:01:53.225Z,101180.30
2023-03-17T00:04:21.659Z,101180.79
2023-03-17T00:06:48.412Z,101183.95
2023-03-17T00:09:18.035Z,101180.73
2023-03-17T00:11:46.056Z,101182.52
2023-03-17T00:14:13.145Z,101181.45
2023-03-17T00:16:45.543Z,101176.69
2023-03-17T00:19:16.893Z,101175.73
2023-03-17T00:21:44.137Z,101176.83
2023-03-17T00:24:14.754Z,101169.73
2023-03-17T00:26:41.756Z,101170.40
2023-03-17T00:29:08.318Z,101167.95
2023-03-17T00:31:35.133Z,101169.19
2023-03-17T00:34:02.068Z,101170.33
2023-03-17T00:36:31.034Z,101167.80
2023-03-17T00:38:57.820Z,101167.68
2023-03-17T00:41:24.780Z,101167.77
2023-03-17T00:43:51.286Z,101165.73
2023-03-17T00:46:29.304Z,101164.36
2023-03-17T00:48:56.163Z,101164.98
2023-03-17T00:51:22.918Z,101161.48
2023-03-17T00:53:49.644Z,101163.50
2023-03-17T00:56:19.068Z,101159.66
2023-03-17T00:58:46.424Z,101156.98
2023-03-17T01:01:13.117Z,101158.65
2023-03-17T01:03:40.462Z,101155.98
2023-03-17T01:06:11.584Z,101156.05
2023-03-17T01:08:40.060Z,101153.15
2023-03-17T01:11:06.623Z,101158.01
2023-03-17T01:13:33.341Z,101157.89
2023-03-17T01:16:00.064Z,101156.73
2023-03-17T01:18:26.969Z,101159.41
2023-03-17T01:20:53.948Z,101163.12
2023-03-17T01:23:20.425Z,101161.03
2023-03-17T01:25:46.950Z,101158.27
2023-03-17T01:28:15.991Z,101159.05
2023-03-17T01:30:42.574Z,101160.52
2023-03-17T01:33:11.066Z,101163.52
2023-03-17T01:35:38.649Z,101159.31
2023-03-17T01:38:06.121Z,101160.02
2023-03-17T01:40:36.554Z,101156.81
2023-03-17T01:43:06.057Z,101157.09
2023-03-17T01:46:09.936Z,101159.69
2023-03-17T01:48:48.811Z,101158.45
2023-03-17T01:51:23.231Z,101164.79
2023-03-17T01:53:50.215Z,101164.27
2023-03-17T01:56:17.108Z,101168.73
2023-03-17T01:58:46.795Z,101158.83
2023-03-17T02:01:13.390Z,101161.20
2023-03-17T02:03:40.404Z,101164.05
2023-03-17T02:06:07.344Z,101162.95
2023-03-17T02:08:33.854Z,101165.48
2023-03-17T02:11:00.635Z,101156.75
2023-03-17T02:13:27.236Z,101161.28
2023-03-17T02:15:53.742Z,101160.44
2023-03-17T02:18:21.953Z,101173.34
2023-03-17T02:20:48.398Z,101179.31
2023-03-17T02:23:17.444Z,101185.31
2023-03-17T02:25:46.753Z,101184.79
2023-03-17T02:28:16.781Z,101192.06
2023-03-17T02:30:43.728Z,101201.09
2023-03-17T02:33:11.582Z,101206.66
2023-03-17T02:35:39.330Z,101207.13
2023-03-17T02:38:06.148Z,101206.91
2023-03-17T02:40:32.753Z,101203.52
2023-03-17T02:43:00.401Z,101201.59
2023-03-17T02:45:26.932Z,101196.50
2023-03-17T02:47:54.926Z,101191.16
2023-03-17T02:50:25.067Z,101190.33
2023-03-17T02:52:51.866Z,101193.77
2023-03-17T02:55:18.990Z,101195.61
2023-03-17T02:57:45.529Z,101195.75
2023-03-17T03:00:12.974Z,101198.59
2023-03-17T03:02:40.199Z,101203.23
2023-03-17T03:05:07.603Z,101204.33
2023-03-17T03:07:34.617Z,101203.58
2023-03-17T03:10:01.122Z,101210.42
2023-03-17T03:12:27.795Z,101209.88
2023-03-17T03:14:54.316Z,101210.05
2023-03-17T03:17:21.420Z,101202.79
2023-03-17T03:19:48.028Z,101197.05
2023-03-17T03:22:14.586Z,101193.20
2023-03-17T03:24:41.496Z,101197.61
2023-03-17T03:27:08.119Z,101202.55
2023-03-17T03:29:34.701Z,101198.15
2023-03-17T03:32:01.263Z,101194.29
2023-03-17T03:34:27.819Z,101199.43
2023-03-17T03:36:54.383Z,101201.96
2023-03-17T03:39:20.902Z,101203.04
2023-03-17T03:41:47.464Z,101201.71
2023-03-17T03:44:14.001Z,101201.41
2023-03-17T03:46:40.583Z,101197.46
2023-03-17T03:49:07.186Z,101199.52
2023-03-17T03:51:33.818Z,101202.02
2023-03-17T03:54:00.334Z,101195.90
2023-03-17T03:56:26.857Z,101197.56
2023-03-17T03:58:53.397Z,101195.92
2023-03-17T04:01:19.990Z,101194.06
2023-03-17T04:03:46.524Z,101193.47
2023-03-17T04:06:13.070Z,101196.37
2023-03-17T04:08:39.649Z,101189.30
2023-03-17T04:11:06.158Z,101184.87
2023-03-17T04:13:32.694Z,101188.05
2023-03-17T04:15:59.264Z,101188.59
2023-03-17T04:18:25.829Z,101187.95
2023-03-17T04:20:52.403Z,101186.33
2023-03-17T04:23:18.993Z,101184.37
2023-03-17T04:25:45.542Z,101184.09
2023-03-17T04:28:12.007Z,101186.59
2023-03-17T04:30:38.541Z,101187.73
2023-03-17T04:33:05.164Z,101189.66
2023-03-17T04:35:31.853Z,101193.92
2023-03-17T04:37:58.430Z,101191.81
2023-03-17T04:40:25.105Z,101190.17
2023-03-17T04:42:51.647Z,101193.84
2023-03-17T04:45:18.409Z,101195.30
2023-03-17T04:47:45.342Z,101197.09
2023-03-17T04:50:12.663Z,101195.02
2023-03-17T04:52:39.268Z,101194.34
2023-03-17T04:55:07.329Z,101195.16
2023-03-17T04:57:34.832Z,101197.86
2023-03-17T05:00:01.482Z,101208.13
2023-03-17T05:02:28.117Z,101212.74
2023-03-17T05:04:54.722Z,101211.92
2023-03-17T05:07:21.232Z,101216.29
2023-03-17T05:09:47.745Z,101221.52
2023-03-17T05:12:15.036Z,101225.23
2023-03-17T05:14:41.732Z,101219.65
2023-03-17T05:17:08.424Z,101213.52
2023-03-17T05:19:34.931Z,101219.95
2023-03-17T05:22:01.395Z,101223.92
2023-03-17T05:24:27.874Z,101216.86
2023-03-17T05:26:54.351Z,101213.41
2023-03-17T05:29:21.505Z,101225.83
2023-03-17T05:31:48.146Z,101222.21
2023-03-17T05:34:14.796Z,101226.57
2023-03-17T05:36:41.376Z,101227.72
2023-03-17T05:39:07.857Z,101231.99
2023-03-17T05:41:34.712Z,101225.48
2023-03-17T05:44:01.199Z,101232.35
2023-03-17T05:46:27.816Z,101233.89
2023-03-17T05:48:54.708Z,101229.98
2023-03-17T05:51:21.258Z,101229.84
2023-03-17T05:53:47.780Z,101229.91
2023-03-17T05:56:14.340Z,101217.22
2023-03-17T05:58:40.878Z,101212.54
2023-03-17T06:01:07.599Z,101213.02
2023-03-17T06:03:34.128Z,101219.86
2023-03-17T06:06:00.626Z,101218.98
2023-03-17T06:08:27.136Z,101223.64
2023-03-17T06:10:53.681Z,101229.98
2023-03-17T06:13:20.218Z,101221.65
2023-03-17T06:15:48.579Z,101216.88
2023-03-17T06:18:15.380Z,101220.76
2023-03-17T06:20:41.871Z,101220.81
2023-03-17T06:23:08.460Z,101221.25
2023-03-17T06:25:35.414Z,101223.75
2023-03-17T06:28:02.838Z,101231.25
2023-03-17T06:30:30.359Z,101230.20
2023-03-17T06:32:56.959Z,101230.13
2023-03-17T06:35:23.730Z,101230.52
2023-03-17T06:37:50.237Z,101233.16
2023-03-17T06:40:17.053Z,101232.38
2023-03-17T06:42:43.816Z,101231.34
2023-03-17T06:45:10.947Z,101229.40
2023-03-17T06:47:37.726Z,101235.63
2023-03-17T06:50:05.673Z,101235.69
2023-03-17T06:52:32.160Z,101237.00
2023-03-17T06:54:58.911Z,101231.88
2023-03-17T06:57:26.054Z,101227.15
2023-03-17T06:59:52.728Z,101234.08
2023-03-17T07:02:19.249Z,101237.08
2023-03-17T07:04:45.822Z,101233.14
2023-03-17T07:07:12.337Z,101239.56
2023-03-17T07:09:38.920Z,101244.20
2023-03-17T07:12:06.040Z,101244.91
2023-03-17T07:14:34.876Z,101250.36
2023-03-17T07:17:05.138Z,101256.91
2023-03-17T07:19:32.597Z,101257.79
2023-03-17T07:21:59.154Z,101261.52
2023-03-17T07:24:25.892Z,101263.58
2023-03-17T07:26:52.854Z,101261.30
2023-03-17T07:29:19.625Z,101255.24
2023-03-17T07:31:46.199Z,101257.15
2023-03-17T07:34:12.869Z,101255.78
2023-03-17T07:36:39.677Z,101255.77
2023-03-17T07:39:06.284Z,101256.03
2023-03-17T07:41:32.999Z,101254.21
2023-03-17T07:44:00.318Z,101250.25
2023-03-17T07:46:26.954Z,101255.52
2023-03-17T07:48:53.506Z,101253.19
2023-03-17T07:51:22.174Z,101255.54
2023-03-17T07:53:49.649Z,101258.91
2023-03-17T07:56:16.736Z,101257.20
2023-03-17T07:58:43.917Z,101255.17
2023-03-17T08:01:10.520Z,101249.45
2023-03-17T08:03:38.709Z,101248.02
2023-03-17T08:06:07.698Z,101246.58
2023-03-17T08:08:34.204Z,101245.80
2023-03-17T08:11:05.331Z,101241.80
2023-03-17T08:13:32.620Z,101235.70
2023-03-17T08:15:59.580Z,101234.45
2023-03-17T08:18:26.270Z,101231.92
2023-03-17T08:20:52.794Z,101234.48
2023-03-17T08:23:20.606Z,101235.35
2023-03-17T08:25:48.026Z,101238.27
2023-03-17T08:28:15.177Z,101239.45
2023-03-17T08:30:42.862Z,101237.61
2023-03-17T08:33:09.495Z,101237.73
2023-03-17T08:35:36.666Z,101235.56
2023-03-17T08:38:04.428Z,101230.95
2023-03-17T08:40:31.664Z,101228.46
2023-03-17T08:42:58.431Z,101227.52
2023-03-17T08:45:25.523Z,101224.12
2023-03-17T08:47:52.768Z,101225.28
2023-03-17T08:50:22.204Z,101228.33
2023-03-17T08:52:49.504Z,101225.07
2023-03-17T08:55:17.125Z,101218.93
2023-03-17T08:57:44.453Z,101224.08
2023-03-17T09:00:14.553Z,101229.85
2023-03-17T09:02:44.001Z,101230.77
2023-03-17T09:05:16.210Z,101222.42
2023-03-17T09:07:42.815Z,101224.49
2023-03-17T09:10:10.812Z,101229.42
2023-03-17T09:12:38.000Z,101227.34
2023-03-17T09:15:06.168Z,101229.75
2023-03-17T09:17:32.708Z,101224.77
2023-03-17T09:19:59.246Z,101231.23
2023-03-17T09:22:25.845Z,101229.83
2023-03-17T09:24:52.488Z,101218.55
2023-03-17T09:27:19.078Z,101221.04
2023-03-17T09:29:45.726Z,101211.98
2023-03-17T09:32:12.432Z,101205.27
2023-03-17T09:34:39.038Z,101197.35
2023-03-17T09:37:05.601Z,101188.31
2023-03-17T09:39:32.155Z,101179.41
2023-03-17T09:42:08.544Z,101170.98
2023-03-17T09:44:47.260Z,101170.67
2023-03-17T09:47:35.653Z,101170.92
2023-03-17T09:50:09.762Z,101167.00
2023-03-17T09:52:36.524Z,101168.46
2023-03-17T09:55:05.242Z,101165.27
2023-03-17T09:57:31.795Z,101160.33
2023-03-17T10:00:16.922Z,101158.23
2023-03-17T10:02:44.088Z,101158.94
2023-03-17T10:05:13.679Z,101153.55
2023-03-17T10:07:45.998Z,101151.25
2023-03-17T10:10:29.363Z,101150.61
2023-03-17T10:13:08.970Z,101149.40
2023-03-17T10:15:47.772Z,101151.83
2023-03-17T10:18:16.892Z,101153.77
2023-03-17T10:20:52.194Z,101154.27
2023-03-17T10:23:24.288Z,101154.21
2023-03-17T10:25:50.814Z,101148.50
2023-03-17T10:28:28.880Z,101149.15
2023-03-17T10:31:02.363Z,101145.52
2023-03-17T10:33:29.374Z,101137.73
2023-03-17T10:35:56.119Z,101127.45
2023-03-17T10:38:24.175Z,101120.75
2023-03-17T10:41:05.771Z,101120.92
2023-03-17T10:43:46.846Z,101120.91
2023-03-17T10:46:22.629Z,101116.83
2023-03-17T10:48:53.301Z,101115.80
2023-03-17T10:51:34.327Z,101110.64
2023-03-17T10:54:02.884Z,101101.96
2023-03-17T10:56:35.112Z,101099.36
2023-03-17T10:59:07.235Z,101094.55
2023-03-17T11:01:45.494Z,101091.06
2023-03-17T11:04:20.933Z,101089.30
2023-03-17T11:06:50.801Z,101084.58
2023-03-17T11:09:19.199Z,101076.41
2023-03-17T11:11:48.226Z,101079.27
2023-03-17T11:14:17.103Z,101078.49
2023-03-17T11:16:57.307Z,101072.68
2023-03-17T11:19:49.638Z,101068.35
2023-03-17T11:22:19.397Z,101065.38
2023-03-17T11:24:48.936Z,101063.30
2023-03-17T11:27:19.513Z,101063.07
2023-03-17T11:30:08.913Z,101056.11
2023-03-17T11:32:38.710Z,101050.13
2023-03-17T11:35:33.477Z,101049.40
2023-03-17T11:38:28.196Z,101049.14
2023-03-17T11:41:00.692Z,101044.29
2023-03-17T11:43:39.820Z,101041.80
2023-03-17T11:46:12.774Z,101039.61
2023-03-17T11:49:15.040Z,101037.58
2023-03-17T11:52:06.172Z,101039.88
2023-03-17T11:54:41.875Z,101036.04
2023-03-17T11:57:14.797Z,101034.40
2023-03-17T12:00:00.307Z,101034.64
2023-03-17T12:02:35.437Z,101032.05
2023-03-17T12:05:05.349Z,101020.53
2023-03-17T12:07:40.861Z,101019.34
2023-03-17T12:10:39.129Z,101023.29
2023-03-17T12:13:15.164Z,101018.16
2023-03-17T12:15:48.411Z,101008.30
2023-03-17T12:18:29.527Z,101002.69
2023-03-17T12:21:14.919Z,100998.05
2023-03-17T12:23:54.096Z,100998.00
2023-03-17T12:26:35.025Z,101003.04
2023-03-17T12:29:42.792Z,101001.54
2023-03-17T12:32:20.878Z,100998.83
2023-03-17T12:34:57.871Z,100992.07
2023-03-17T12:37:27.053Z,100994.20
2023-03-17T12:40:00.477Z,100989.16
2023-03-17T12:43:17.418Z,100984.71
2023-03-17T12:45:55.324Z,100981.09
2023-03-17T12:48:40.682Z,100985.73
2023-03-17T12:51:38.686Z,100979.48
2023-03-17T12:54:21.812Z,100978.85
2023-03-17T12:56:49.946Z,100970.54
2023-03-17T12:59:25.214Z,100966.32
2023-03-17T13:01:56.981Z,100966.05
2023-03-17T13:04:33.133Z,100962.59
2023-03-17T13:07:17.708Z,100961.35
2023-03-17T13:09:48.865Z,100961.64
2023-03-17T13:12:34.069Z,100960.61
2023-03-17T13:15:00.675Z,100956.88
2023-03-17T13:17:27.143Z,100953.50
2023-03-17T13:20:09.351Z,100948.56
2023-03-17T13:23:03.872Z,100940.39
2023-03-17T13:25:50.138Z,100943.16
2023-03-17T13:28:25.170Z,100935.05
2023-03-17T13:30:51.626Z,100937.55
2023-03-17T13:33:20.711Z,100940.24
2023-03-17T13:36:11.637Z,100936.30
2023-03-17T13:39:18.260Z,100935.35
2023-03-17T13:42:05.523Z,100932.27
2023-03-17T13:45:08.041Z,100927.56
2023-03-17T13:47:38.016Z,100932.65
2023-03-17T13:50:17.241Z,100934.91
2023-03-17T13:52:57.341Z,100934.04
2023-03-17T13:55:24.100Z,100931.83
2023-03-17T13:58:11.414Z,100930.50
2023-03-17T14:00:47.665Z,100928.11
2023-03-17T14:03:30.806Z,100925.64
2023-03-17T14:06:00.773Z,100919.95
2023-03-17T14:08:34.967Z,100915.52
2023-03-17T14:11:07.603Z,100919.89
2023-03-17T14:14:07.860Z,100918.65
2023-03-17T14:16:42.129Z,100912.19
2023-03-17T14:19:29.251Z,100904.11
2023-03-17T14:22:31.285Z,100899.66
2023-03-17T14:25:01.589Z,100895.11
2023-03-17T14:27:32.794Z,100890.30
2023-03-17T14:30:06.922Z,100887.61
2023-03-17T14:32:33.609Z,100882.57
2023-03-17T14:35:01.302Z,100875.73
2023-03-17T14:37:28.355Z,100870.71
2023-03-17T14:39:57.253Z,100868.94
2023-03-17T14:42:29.728Z,100861.80
2023-03-17T14:45:19.036Z,100861.21
2023-03-17T14:47:45.668Z,100858.83
2023-03-17T14:50:24.987Z,100853.66
2023-03-17T14:52:51.572Z,100854.73
2023-03-17T14:55:18.549Z,100851.10
2023-03-17T14:57:52.391Z,100844.77
2023-03-17T15:00:33.695Z,100846.03
2023-03-17T15:03:02.002Z,100841.48
2023-03-17T15:05:42.512Z,100838.53
2023-03-17T15:08:44.429Z,100837.60
2023-03-17T15:11:17.340Z,100827.39
2023-03-17T15:13:43.889Z,100831.65
2023-03-17T15:16:33.602Z,100832.45
2023-03-17T15:19:20.689Z,100825.82
2023-03-17T15:21:47.719Z,100817.99
2023-03-17T15:24:39.121Z,100815.04
2023-03-17T15:27:14.640Z,100815.74
2023-03-17T15:29:41.224Z,100812.66
2023-03-17T15:32:16.990Z,100809.70
2023-03-17T15:34:43.522Z,100806.48
2023-03-17T15:37:16.617Z,100802.75
2023-03-17T15:39:43.292Z,100798.73
2023-03-17T15:42:10.018Z,100800.73
2023-03-17T15:44:36.527Z,100800.22
2023-03-17T15:47:04.236Z,100800.54
2023-03-17T15:49:30.760Z,100803.89
2023-03-17T15:51:57.406Z,100806.63
2023-03-17T15:54:24.449Z,100804.56
2023-03-17T15:56:50.961Z,100807.78
2023-03-17T15:59:17.439Z,100799.80
2023-03-17T16:01:44.186Z,100797.83
2023-03-17T16:04:10.924Z,100800.02
2023-03-17T16:06:37.640Z,100804.11
2023-03-17T16:09:06.436Z,100805.46
2023-03-17T16:11:32.961Z,100803.64
2023-03-17T16:13:59.972Z,100800.89
2023-03-17T16:16:42.011Z,100808.83
2023-03-17T16:19:17.979Z,100810.42
2023-03-17T16:21:44.552Z,100818.29
2023-03-17T16:24:23.835Z,100814.03
2023-03-17T16:26:50.519Z,100818.73
2023-03-17T16:29:19.057Z,100816.76
2023-03-17T16:31:48.107Z,100819.49
2023-03-17T16:34:20.100Z,100821.34
2023-03-17T16:36:49.321Z,100823.90
2023-03-17T16:39:22.197Z,100826.29
2023-03-17T16:41:51.917Z,100828.65
2023-03-17T16:44:20.688Z,100829.25
2023-03-17T16:46:47.752Z,100826.91
2023-03-17T16:49:19.647Z,100831.18
2023-03-17T16:51:49.381Z,100830.59
2023-03-17T16:54:16.634Z,100831.04
2023-03-17T16:56:43.638Z,100827.63
2023-03-17T16:59:16.572Z,100831.73
2023-03-17T17:01:43.272Z,100836.90
2023-03-17T17:04:10.448Z,100836.63
2023-03-17T17:06:37.197Z,100843.55
2023-03-17T17:09:04.010Z,100841.54
2023-03-17T17:11:30.581Z,100843.20
2023-03-17T17:13:57.113Z,100844.50
2023-03-17T17:16:34.564Z,100845.80
2023-03-17T17:19:02.780Z,100842.54
2023-03-17T17:21:29.551Z,100838.60
2023-03-17T17:23:56.232Z,100833.95
2023-03-17T17:26:23.191Z,100835.23
2023-03-17T17:28:49.797Z,100838.98
2023-03-17T17:31:16.434Z,100840.65
2023-03-17T17:33:43.052Z,100847.02
2023-03-17T17:36:16.114Z,100845.70
2023-03-17T17:38:43.178Z,100844.37
2023-03-17T17:41:11.214Z,100842.16
2023-03-17T17:43:38.267Z,100838.54
2023-03-17T17:46:10.765Z,100840.86
2023-03-17T17:48:37.307Z,100839.52
2023-03-17T17:51:03.952Z,100839.94
2023-03-17T17:53:30.468Z,100843.34
2023-03-17T17:55:56.947Z,100848.65
2023-03-17T17:58:25.962Z,100845.73
2023-03-17T18:00:53.284Z,100845.11
2023-03-17T18:03:19.978Z,100843.58
2023-03-17T18:05:46.475Z,100845.15
2023-03-17T18:08:14.694Z,100844.81
2023-03-17T18:10:41.269Z,100843.49
2023-03-17T18:13:08.460Z,100843.02
2023-03-17T18:15:35.268Z,100844.65
2023-03-17T18:18:02.212Z,100848.53
2023-03-17T18:20:28.782Z,100855.41
2023-03-17T18:22:55.581Z,100857.91
2023-03-17T18:25:22.189Z,100852.73
2023-03-17T18:27:48.771Z,100854.16
2023-03-17T18:30:28.518Z,100852.27
2023-03-17T18:33:00.620Z,100842.71
2023-03-17T18:35:28.702Z,100843.84
2023-03-17T18:37:56.788Z,100844.23
2023-03-17T18:40:24.854Z,100847.77
2023-03-17T18:42:51.373Z,100848.35
2023-03-17T18:45:18.080Z,100845.94
2023-03-17T18:47:44.612Z,100847.02
2023-03-17T18:50:13.470Z,100849.16
2023-03-17T18:52:41.955Z,100846.94
2023-03-17T18:55:10.713Z,100848.52
2023-03-17T18:57:37.406Z,100850.61
2023-03-17T19:00:06.055Z,100850.77
2023-03-17T19:02:32.660Z,100855.44
2023-03-17T19:04:59.246Z,100849.16
2023-03-17T19:07:25.764Z,100852.12
2023-03-17T19:09:52.613Z,100852.34
2023-03-17T19:12:19.244Z,100852.55
2023-03-17T19:14:45.953Z,100851.50
2023-03-17T19:17:12.739Z,100845.64
2023-03-17T19:19:39.261Z,100850.92
2023-03-17T19:22:05.888Z,100848.34
2023-03-17T19:24:35.425Z,100845.09
2023-03-17T19:27:02.389Z,100844.59
2023-03-17T19:29:28.903Z,100845.98
2023-03-17T19:31:55.709Z,100847.21
2023-03-17T19:34:22.205Z,100849.86
2023-03-17T19:36:48.805Z,100849.71
2023-03-17T19:39:15.751Z,100847.16
2023-03-17T19:41:42.298Z,100850.15
2023-03-17T19:44:09.043Z,100848.27
2023-03-17T19:46:38.060Z,100841.02
2023-03-17T19:49:05.228Z,100839.84
2023-03-17T19:51:32.404Z,100840.06
2023-03-17T19:53:59.008Z,100834.70
2023-03-17T19:56:25.803Z,100835.42
2023-03-17T19:58:52.380Z,100837.76
2023-03-17T20:01:19.071Z,100835.38
2023-03-17T20:03:45.619Z,100829.02
2023-03-17T20:06:13.126Z,100825.98
2023-03-17T20:08:42.564Z,100828.67
2023-03-17T20:11:13.233Z,100826.84
2023-03-17T20:13:40.226Z,100820.88
2023-03-17T20:16:08.081Z,100819.91
2023-03-17T20:18:35.101Z,100820.50
2023-03-17T20:21:04.875Z,100821.30
2023-03-17T20:23:31.695Z,100811.64
2023-03-17T20:25:58.449Z,100818.02
2023-03-17T20:28:25.495Z,100818.48
2023-03-17T20:30:52.148Z,100812.02
2023-03-17T20:33:18.770Z,100809.55
2023-03-17T20:35:45.957Z,100812.45
2023-03-17T20:38:13.403Z,100814.81
2023-03-17T20:40:40.367Z,100812.81
2023-03-17T20:43:06.892Z,100811.90
2023-03-17T20:45:33.676Z,100810.66
2023-03-17T20:48:00.244Z,100811.63
2023-03-17T20:50:26.803Z,100811.56
2023-03-17T20:52:53.383Z,100817.91
2023-03-17T20:55:20.141Z,100814.17
2023-03-17T20:57:47.059Z,100812.38
2023-03-17T21:00:17.249Z,100811.61
2023-03-17T21:02:44.812Z,100811.40
2023-03-17T21:05:21.047Z,100812.18
2023-03-17T21:07:48.501Z,100809.02
2023-03-17T21:10:21.435Z,100807.05
2023-03-17T21:12:48.143Z,100805.99
2023-03-17T21:15:15.727Z,100803.30
2023-03-17T21:17:42.606Z,100805.15
2023-03-17T21:20:11.764Z,100799.39
2023-03-17T21:22:38.753Z,100799.00
2023-03-17T21:25:06.466Z,100801.05
2023-03-17T21:27:33.000Z,100800.82
2023-03-17T21:29:59.758Z,100802.62
2023-03-17T21:32:26.301Z,100797.80
2023-03-17T21:34:52.901Z,100799.98
2023-03-17T21:37:19.562Z,100797.81
2023-03-17T21:39:46.195Z,100798.08
2023-03-17T21:42:13.231Z,100793.95
2023-03-17T21:44:40.338Z,100796.65
2023-03-17T21:47:07.493Z,100795.15
2023-03-17T21:49:34.054Z,100795.92
2023-03-17T21:52:00.669Z,100799.14
2023-03-17T21:54:27.326Z,100792.79
2023-03-17T21:56:53.929Z,100789.73
2023-03-17T21:59:20.477Z,100790.67
2023-03-17T22:01:47.163Z,100791.80
2023-03-17T22:04:13.772Z,100795.19
2023-03-17T22:06:40.288Z,100798.38
2023-03-17T22:09:07.339Z,100803.14
2023-03-17T22:11:33.870Z,100802.94
2023-03-17T22:14:00.447Z,100804.27
2023-03-17T22:16:27.329Z,100802.30
2023-03-17T22:18:53.970Z,100802.24
2023-03-17T22:21:21.369Z,100801.14
2023-03-17T22:23:48.173Z,100795.36
2023-03-17T22:26:19.903Z,100799.64
2023-03-17T22:28:47.753Z,100798.71
2023-03-17T22:31:17.140Z,100796.41
2023-03-17T22:33:44.108Z,100799.64
2023-03-17T22:36:11.655Z,100802.91
2023-03-17T22:38:38.496Z,100797.42
2023-03-17T22:41:11.507Z,100795.98
2023-03-17T22:43:38.469Z,100796.13
2023-03-17T22:46:05.256Z,100794.58
2023-03-17T22:48:32.014Z,100796.23
2023-03-17T22:51:08.184Z,100794.16
2023-03-17T22:53:36.041Z,100788.25
2023-03-17T22:56:03.493Z,100790.30
2023-03-17T22:58:30.098Z,100789.06
2023-03-17T23:00:57.329Z,100790.77
2023-03-17T23:03:25.118Z,100786.27
2023-03-17T23:05:54.665Z,100788.52
2023-03-17T23:08:21.732Z,100786.11
2023-03-17T23:10:49.480Z,100784.94
2023-03-17T23:13:18.076Z,100784.45
2023-03-17T23:15:44.814Z,100789.17
2023-03-17T23:18:11.640Z,100782.95
2023-03-17T23:20:39.751Z,100784.04
2023-03-17T23:23:07.988Z,100780.21
2023-03-17T23:25:35.316Z,100780.39
2023-03-17T23:28:02.586Z,100777.23
2023-03-17T23:30:29.389Z,100775.18
2023-03-17T23:32:56.368Z,100777.13
2023-03-17T23:35:22.975Z,100775.05
2023-03-17T23:37:49.463Z,100771.48
2023-03-17T23:40:16.687Z,100771.80
2023-03-17T23:42:47.569Z,100775.10
2023-03-17T23:45:15.845Z,100774.06
2023-03-17T23:47:43.729Z,100773.70
2023-03-17T23:50:11.647Z,100778.35
2023-03-17T23:52:38.879Z,100781.24
2023-03-17T23:55:06.488Z,100780.36
2023-03-17T23:57:34.215Z,100776.34
